sensor_id;sensor_type;location;lat;lon;timestamp;pressure;altitude;pressure_sealevel;temperature;humidity
21728;BME280;11026;50.560;17.852;2023-01-29T00:00:08;100680.09;;;-2.89;97.82
21728;BME280;11026;50.560;17.852;2023-01-29T00:02:38;100686.09;;;-2.92;97.60
21728;BME280;11026;50.560;17.852;2023-01-29T00:05:06;100685.91;;;-2.98;97.93
21728;BME280;11026;50.560;17.852;2023-01-29T00:07:53;100681.59;;;-2.98;98.21
21728;BME280;11026;50.560;17.852;2023-01-29T00:10:21;100689.34;;;-2.99;99.05
21728;BME280;11026;50.560;17.852;2023-01-29T00:12:48;100695.13;;;-3.08;99.23
21728;BME280;11026;50.560;17.852;2023-01-29T00:15:18;100690.56;;;-3.16;99.74
21728;BME280;11026;50.560;17.852;2023-01-29T00:17:46;100689.16;;;-3.05;100.00
21728;BME280;11026;50.560;17.852;2023-01-29T00:20:21;100693.50;;;-3.04;100.00
21728;BME280;11026;50.560;17.852;2023-01-29T00:22:49;100681.53;;;-3.01;100.00
21728;BME280;11026;50.560;17.852;2023-01-29T00:25:18;100691.44;;;-2.86;100.00
21728;BME280;11026;50.560;17.852;2023-01-29T00:27:45;100693.91;;;-2.90;99.30
21728;BME280;11026;50.560;17.852;2023-01-29T00:30:13;100698.91;;;-2.97;99.31
21728;BME280;11026;50.560;17.852;2023-01-29T00:32:49;100697.22;;;-2.94;99.38
21728;BME280;11026;50.560;17.852;2023-01-29T00:35:18;100692.38;;;-2.84;99.25
21728;BME280;11026;50.560;17.852;2023-01-29T00:37:45;100694.88;;;-2.57;97.48
21728;BME280;11026;50.560;17.852;2023-01-29T00:40:12;100700.25;;;-2.81;96.81
21728;BME280;11026;50.560;17.852;2023-01-29T00:42:43;100696.72;;;-2.83;96.64
21728;BME280;11026;50.560;17.852;2023-01-29T00:45:29;100705.22;;;-2.87;96.69
21728;BME280;11026;50.560;17.852;2023-01-29T00:48:04;100698.41;;;-2.85;96.91
21728;BME280;11026;50.560;17.852;2023-01-29T00:50:32;100705.13;;;-2.90;97.32
21728;BME280;11026;50.560;17.852;2023-01-29T00:52:59;100703.13;;;-3.00;98.46
21728;BME280;11026;50.560;17.852;2023-01-29T00:55:29;100699.78;;;-2.96;99.11
21728;BME280;11026;50.560;17.852;2023-01-29T00:57:56;100684.59;;;-2.84;99.46
21728;BME280;11026;50.560;17.852;2023-01-29T01:00:23;100679.59;;;-2.78;98.71
21728;BME280;11026;50.560;17.852;2023-01-29T01:02:51;100682.84;;;-2.85;98.74
21728;BME280;11026;50.560;17.852;2023-01-29T01:05:33;100672.50;;;-2.85;98.03
21728;BME280;11026;50.560;17.852;2023-01-29T01:08:01;100666.84;;;-2.70;97.89
21728;BME280;11026;50.560;17.852;2023-01-29T01:10:31;100666.56;;;-2.81;98.03
21728;BME280;11026;50.560;17.852;2023-01-29T01:13:01;100652.81;;;-2.78;97.91
21728;BME280;11026;50.560;17.852;2023-01-29T01:15:33;100658.72;;;-2.84;98.09
21728;BME280;11026;50.560;17.852;2023-01-29T01:18:01;100662.38;;;-2.76;98.20
21728;BME280;11026;50.560;17.852;2023-01-29T01:20:31;100655.19;;;-2.86;98.39
21728;BME280;11026;50.560;17.852;2023-01-29T01:22:59;100652.59;;;-2.86;99.09
21728;BME280;11026;50.560;17.852;2023-01-29T01:25:26;100638.09;;;-2.81;99.29
21728;BME280;11026;50.560;17.852;2023-01-29T01:27:55;100643.50;;;-2.72;99.13
21728;BME280;11026;50.560;17.852;2023-01-29T01:30:24;100635.53;;;-2.79;99.21
21728;BME280;11026;50.560;17.852;2023-01-29T01:32:52;100638.84;;;-2.85;99.44
21728;BME280;11026;50.560;17.852;2023-01-29T01:35:19;100637.19;;;-2.81;99.93
21728;BME280;11026;50.560;17.852;2023-01-29T01:37:47;100637.25;;;-2.80;100.00
21728;BME280;11026;50.560;17.852;2023-01-29T01:40:17;100639.28;;;-2.68;99.95
21728;BME280;11026;50.560;17.852;2023-01-29T01:42:51;100637.34;;;-2.75;99.72
21728;BME280;11026;50.560;17.852;2023-01-29T01:45:34;100648.34;;;-2.84;99.73
21728;BME280;11026;50.560;17.852;2023-01-29T01:48:15;100640.69;;;-2.79;100.00
21728;BME280;11026;50.560;17.852;2023-01-29T01:53:30;100626.28;;;-2.69;100.00
21728;BME280;11026;50.560;17.852;2023-01-29T01:56:04;100621.91;;;-2.72;100.00
21728;BME280;11026;50.560;17.852;2023-01-29T01:58:39;100617.50;;;-2.75;100.00
21728;BME280;11026;50.560;17.852;2023-01-29T02:01:09;100625.13;;;-2.81;100.00
21728;BME280;11026;50.560;17.852;2023-01-29T02:03:51;100625.28;;;-2.75;100.00
21728;BME280;11026;50.560;17.852;2023-01-29T02:06:39;100619.53;;;-2.64;100.00
21728;BME280;11026;50.560;17.852;2023-01-29T02:09:34;100626.66;;;-2.87;100.00
21728;BME280;11026;50.560;17.852;2023-01-29T02:12:08;100634.81;;;-2.74;100.00
21728;BME280;11026;50.560;17.852;2023-01-29T02:14:38;100633.16;;;-2.72;100.00
21728;BME280;11026;50.560;17.852;2023-01-29T02:17:09;100640.81;;;-2.75;100.00
21728;BME280;11026;50.560;17.852;2023-01-29T02:20:00;100637.66;;;-2.96;100.00
21728;BME280;11026;50.560;17.852;2023-01-29T02:42:26;100630.69;;;-2.97;100.00
21728;BME280;11026;50.560;17.852;2023-01-29T02:45:20;100621.38;;;-2.92;100.00
21728;BME280;11026;50.560;17.852;2023-01-29T02:48:00;100621.94;;;-3.02;100.00
21728;BME280;11026;50.560;17.852;2023-01-29T02:50:48;100636.59;;;-3.03;100.00
21728;BME280;11026;50.560;17.852;2023-01-29T02:53:33;100631.72;;;-2.92;100.00
21728;BME280;11026;50.560;17.852;2023-01-29T02:56:14;100636.72;;;-2.98;100.00
21728;BME280;11026;50.560;17.852;2023-01-29T02:58:51;100636.50;;;-3.06;100.00
21728;BME280;11026;50.560;17.852;2023-01-29T03:01:29;100648.56;;;-3.06;100.00
21728;BME280;11026;50.560;17.852;2023-01-29T03:04:05;100650.91;;;-3.15;100.00
21728;BME280;11026;50.560;17.852;2023-01-29T03:07:04;100666.53;;;-3.12;100.00
21728;BME280;11026;50.560;17.852;2023-01-29T03:09:40;100652.75;;;-3.11;100.00
21728;BME280;11026;50.560;17.852;2023-01-29T03:12:16;100652.84;;;-3.08;100.00
21728;BME280;11026;50.560;17.852;2023-01-29T03:14:55;100653.63;;;-3.11;100.00
21728;BME280;11026;50.560;17.852;2023-01-29T03:18:02;100658.78;;;-3.11;100.00
21728;BME280;11026;50.560;17.852;2023-01-29T03:20:38;100646.59;;;-3.15;100.00
21728;BME280;11026;50.560;17.852;2023-01-29T03:23:24;100644.84;;;-3.16;100.00
21728;BME280;11026;50.560;17.852;2023-01-29T03:26:12;100638.88;;;-3.13;100.00
21728;BME280;11026;50.560;17.852;2023-01-29T03:29:02;100634.94;;;-3.01;100.00
21728;BME280;11026;50.560;17.852;2023-01-29T03:31:52;100628.72;;;-3.06;100.00
21728;BME280;11026;50.560;17.852;2023-01-29T03:34:49;100627.84;;;-3.06;100.00
21728;BME280;11026;50.560;17.852;2023-01-29T03:37:44;100640.47;;;-3.17;100.00
21728;BME280;11026;50.560;17.852;2023-01-29T03:40:14;100631.94;;;-3.14;100.00
21728;BME280;11026;50.560;17.852;2023-01-29T03:43:11;100628.59;;;-3.10;100.00
21728;BME280;11026;50.560;17.852;2023-01-29T03:46:02;100631.84;;;-3.17;100.00
21728;BME280;11026;50.560;17.852;2023-01-29T03:52:11;100617.16;;;-3.18;100.00
21728;BME280;11026;50.560;17.852;2023-01-29T04:00:37;100619.66;;;-3.22;100.00
21728;BME280;11026;50.560;17.852;2023-01-29T04:03:14;100611.06;;;-3.20;100.00
21728;BME280;11026;50.560;17.852;2023-01-29T04:09:17;100601.47;;;-3.25;100.00
21728;BME280;11026;50.560;17.852;2023-01-29T04:11:26;100598.94;;;-3.22;100.00
21728;BME280;11026;50.560;17.852;2023-01-29T04:13:56;100582.09;;;-3.37;100.00
21728;BME280;11026;50.560;17.852;2023-01-29T04:16:35;100591.41;;;-3.44;100.00
21728;BME280;11026;50.560;17.852;2023-01-29T04:19:05;100592.28;;;-3.43;100.00
21728;BME280;11026;50.560;17.852;2023-01-29T04:21:34;100576.25;;;-3.32;100.00
21728;BME280;11026;50.560;17.852;2023-01-29T04:24:05;100574.31;;;-3.39;100.00
21728;BME280;11026;50.560;17.852;2023-01-29T04:30:09;100574.69;;;-3.25;100.00
21728;BME280;11026;50.560;17.852;2023-01-29T04:35:51;100562.72;;;-3.22;100.00
21728;BME280;11026;50.560;17.852;2023-01-29T04:44:17;100575.53;;;-3.26;100.00
21728;BME280;11026;50.560;17.852;2023-01-29T04:49:55;100576.50;;;-3.23;100.00
21728;BME280;11026;50.560;17.852;2023-01-29T04:57:42;100562.66;;;-3.25;100.00
21728;BME280;11026;50.560;17.852;2023-01-29T05:00:27;100562.91;;;-3.15;100.00
21728;BME280;11026;50.560;17.852;2023-01-29T05:02:56;100565.50;;;-3.14;100.00
21728;BME280;11026;50.560;17.852;2023-01-29T05:05:27;100568.63;;;-3.26;100.00
21728;BME280;11026;50.560;17.852;2023-01-29T05:08:01;100567.47;;;-3.05;100.00
21728;BME280;11026;50.560;17.852;2023-01-29T05:10:30;100560.13;;;-3.22;100.00
21728;BME280;11026;50.560;17.852;2023-01-29T05:13:12;100556.13;;;-3.10;100.00
21728;BME280;11026;50.560;17.852;2023-01-29T05:16:03;100554.28;;;-3.14;100.00
21728;BME280;11026;50.560;17.852;2023-01-29T05:18:33;100545.66;;;-3.15;100.00
21728;BME280;11026;50.560;17.852;2023-01-29T05:21:04;100551.41;;;-3.25;100.00
21728;BME280;11026;50.560;17.852;2023-01-29T05:23:33;100545.69;;;-3.13;100.00
21728;BME280;11026;50.560;17.852;2023-01-29T05:26:01;100554.91;;;-3.23;100.00
21728;BME280;11026;50.560;17.852;2023-01-29T05:28:28;100540.91;;;-3.30;100.00
21728;BME280;11026;50.560;17.852;2023-01-29T05:30:56;100549.03;;;-3.17;100.00
21728;BME280;11026;50.560;17.852;2023-01-29T05:33:35;100560.06;;;-3.25;100.00
21728;BME280;11026;50.560;17.852;2023-01-29T05:36:02;100555.59;;;-3.29;100.00
21728;BME280;11026;50.560;17.852;2023-01-29T05:38:32;100548.88;;;-3.24;100.00
21728;BME280;11026;50.560;17.852;2023-01-29T05:40:59;100556.72;;;-3.20;100.00
21728;BME280;11026;50.560;17.852;2023-01-29T05:43:26;100558.69;;;-3.12;100.00
21728;BME280;11026;50.560;17.852;2023-01-29T05:45:56;100550.53;;;-3.26;100.00
21728;BME280;11026;50.560;17.852;2023-01-29T05:48:25;100560.94;;;-3.24;100.00
21728;BME280;11026;50.560;17.852;2023-01-29T05:51:04;100562.56;;;-3.28;100.00
21728;BME280;11026;50.560;17.852;2023-01-29T05:53:31;100563.69;;;-3.18;100.00
21728;BME280;11026;50.560;17.852;2023-01-29T05:56:03;100566.16;;;-3.23;100.00
21728;BME280;11026;50.560;17.852;2023-01-29T05:58:31;100562.19;;;-3.10;100.00
21728;BME280;11026;50.560;17.852;2023-01-29T06:01:20;100557.81;;;-3.12;100.00
21728;BME280;11026;50.560;17.852;2023-01-29T06:03:48;100567.97;;;-3.18;100.00
21728;BME280;11026;50.560;17.852;2023-01-29T06:06:16;100561.16;;;-3.16;100.00
21728;BME280;11026;50.560;17.852;2023-01-29T06:08:43;100557.66;;;-3.17;100.00
21728;BME280;11026;50.560;17.852;2023-01-29T06:11:12;100561.22;;;-3.13;100.00
21728;BME280;11026;50.560;17.852;2023-01-29T06:13:41;100568.31;;;-3.06;100.00
21728;BME280;11026;50.560;17.852;2023-01-29T06:16:11;100568.97;;;-3.13;100.00
21728;BME280;11026;50.560;17.852;2023-01-29T06:18:40;100567.44;;;-3.07;100.00
21728;BME280;11026;50.560;17.852;2023-01-29T06:21:10;100575.94;;;-3.12;100.00
21728;BME280;11026;50.560;17.852;2023-01-29T06:23:39;100578.25;;;-3.22;100.00
21728;BME280;11026;50.560;17.852;2023-01-29T06:26:11;100577.16;;;-2.98;100.00
21728;BME280;11026;50.560;17.852;2023-01-29T06:28:41;100585.34;;;-3.14;100.00
21728;BME280;11026;50.560;17.852;2023-01-29T06:31:09;100581.13;;;-3.11;100.00
21728;BME280;11026;50.560;17.852;2023-01-29T06:33:57;100584.38;;;-3.18;100.00
21728;BME280;11026;50.560;17.852;2023-01-29T06:36:26;100594.72;;;-3.19;100.00
21728;BME280;11026;50.560;17.852;2023-01-29T06:38:53;100593.88;;;-3.18;100.00
21728;BME280;11026;50.560;17.852;2023-01-29T06:41:22;100588.03;;;-3.11;99.48
21728;BME280;11026;50.560;17.852;2023-01-29T06:43:51;100584.56;;;-3.12;98.64
21728;BME280;11026;50.560;17.852;2023-01-29T06:46:20;100578.53;;;-3.12;98.02
21728;BME280;11026;50.560;17.852;2023-01-29T06:48:48;100586.53;;;-3.03;97.70
21728;BME280;11026;50.560;17.852;2023-01-29T06:51:17;100578.59;;;-3.09;97.31
21728;BME280;11026;50.560;17.852;2023-01-29T06:53:44;100577.44;;;-2.89;96.60
21728;BME280;11026;50.560;17.852;2023-01-29T06:56:12;100585.13;;;-2.92;95.86
21728;BME280;11026;50.560;17.852;2023-01-29T06:58:39;100590.41;;;-2.87;95.57
21728;BME280;11026;50.560;17.852;2023-01-29T07:01:10;100573.81;;;-2.94;95.61
21728;BME280;11026;50.560;17.852;2023-01-29T07:03:51;100572.16;;;-2.92;95.01
21728;BME280;11026;50.560;17.852;2023-01-29T07:06:18;100582.44;;;-2.95;94.66
21728;BME280;11026;50.560;17.852;2023-01-29T07:08:46;100584.84;;;-3.01;94.42
21728;BME280;11026;50.560;17.852;2023-01-29T07:11:15;100596.91;;;-3.02;93.63
21728;BME280;11026;50.560;17.852;2023-01-29T07:13:43;100600.25;;;-3.06;93.67
21728;BME280;11026;50.560;17.852;2023-01-29T07:16:10;100603.88;;;-3.01;93.42
21728;BME280;11026;50.560;17.852;2023-01-29T07:18:39;100604.81;;;-2.97;93.04
21728;BME280;11026;50.560;17.852;2023-01-29T07:21:06;100611.44;;;-3.07;92.46
21728;BME280;11026;50.560;17.852;2023-01-29T07:23:34;100619.25;;;-3.05;92.36
21728;BME280;11026;50.560;17.852;2023-01-29T07:26:03;100611.03;;;-2.90;92.62
21728;BME280;11026;50.560;17.852;2023-01-29T07:28:30;100614.44;;;-2.93;92.07
21728;BME280;11026;50.560;17.852;2023-01-29T07:30:58;100618.59;;;-2.98;90.97
21728;BME280;11026;50.560;17.852;2023-01-29T07:33:26;100622.78;;;-3.03;90.79
21728;BME280;11026;50.560;17.852;2023-01-29T07:35:53;100618.47;;;-3.03;89.92
21728;BME280;11026;50.560;17.852;2023-01-29T07:38:20;100613.41;;;-2.98;89.38
21728;BME280;11026;50.560;17.852;2023-01-29T07:40:50;100613.59;;;-2.92;89.34
21728;BME280;11026;50.560;17.852;2023-01-29T07:43:18;100613.50;;;-2.95;88.39
21728;BME280;11026;50.560;17.852;2023-01-29T07:45:46;100622.22;;;-2.93;87.30
21728;BME280;11026;50.560;17.852;2023-01-29T07:48:14;100626.34;;;-2.98;87.63
21728;BME280;11026;50.560;17.852;2023-01-29T07:50:41;100622.22;;;-2.93;87.38
21728;BME280;11026;50.560;17.852;2023-01-29T07:53:14;100629.78;;;-2.99;86.83
21728;BME280;11026;50.560;17.852;2023-01-29T07:55:44;100636.06;;;-2.91;86.23
21728;BME280;11026;50.560;17.852;2023-01-29T07:58:11;100643.25;;;-2.81;85.54
21728;BME280;11026;50.560;17.852;2023-01-29T08:00:40;100651.19;;;-2.75;84.94
21728;BME280;11026;50.560;17.852;2023-01-29T08:03:12;100648.88;;;-2.95;83.90
21728;BME280;11026;50.560;17.852;2023-01-29T08:05:40;100653.44;;;-2.87;84.65
21728;BME280;11026;50.560;17.852;2023-01-29T08:08:08;100648.25;;;-2.87;84.37
21728;BME280;11026;50.560;17.852;2023-01-29T08:10:37;100656.34;;;-2.76;82.64
21728;BME280;11026;50.560;17.852;2023-01-29T08:13:11;100664.88;;;-2.79;82.78
21728;BME280;11026;50.560;17.852;2023-01-29T08:15:44;100661.38;;;-2.81;82.47
21728;BME280;11026;50.560;17.852;2023-01-29T08:18:13;100662.53;;;-2.69;82.01
21728;BME280;11026;50.560;17.852;2023-01-29T08:20:41;100672.31;;;-2.59;82.59
21728;BME280;11026;50.560;17.852;2023-01-29T08:23:12;100654.19;;;-2.59;82.08
21728;BME280;11026;50.560;17.852;2023-01-29T08:25:41;100643.28;;;-2.48;80.75
21728;BME280;11026;50.560;17.852;2023-01-29T08:28:09;100648.22;;;-2.57;80.00
21728;BME280;11026;50.560;17.852;2023-01-29T08:30:37;100646.06;;;-2.40;79.33
21728;BME280;11026;50.560;17.852;2023-01-29T08:33:05;100643.91;;;-2.56;79.00
21728;BME280;11026;50.560;17.852;2023-01-29T08:35:33;100640.03;;;-2.39;79.37
21728;BME280;11026;50.560;17.852;2023-01-29T08:38:01;100640.13;;;-2.36;77.82
21728;BME280;11026;50.560;17.852;2023-01-29T08:40:32;100635.84;;;-2.34;77.90
21728;BME280;11026;50.560;17.852;2023-01-29T08:43:01;100634.34;;;-2.26;77.50
21728;BME280;11026;50.560;17.852;2023-01-29T08:45:40;100631.72;;;-2.27;77.76
21728;BME280;11026;50.560;17.852;2023-01-29T08:48:09;100622.56;;;-2.13;77.96
21728;BME280;11026;50.560;17.852;2023-01-29T08:50:38;100625.81;;;-2.21;76.42
21728;BME280;11026;50.560;17.852;2023-01-29T08:53:07;100632.38;;;-2.01;76.15
21728;BME280;11026;50.560;17.852;2023-01-29T08:55:38;100628.00;;;-2.02;76.19
21728;BME280;11026;50.560;17.852;2023-01-29T08:58:07;100628.91;;;-2.02;76.94
21728;BME280;11026;50.560;17.852;2023-01-29T09:00:37;100627.41;;;-1.90;76.01
21728;BME280;11026;50.560;17.852;2023-01-29T09:03:04;100624.97;;;-1.86;74.84
21728;BME280;11026;50.560;17.852;2023-01-29T09:05:34;100623.25;;;-1.84;74.74
21728;BME280;11026;50.560;17.852;2023-01-29T09:08:08;100625.25;;;-1.74;75.04
21728;BME280;11026;50.560;17.852;2023-01-29T09:10:37;100618.69;;;-1.58;74.52
21728;BME280;11026;50.560;17.852;2023-01-29T09:13:10;100613.66;;;-1.50;73.11
21728;BME280;11026;50.560;17.852;2023-01-29T09:15:38;100609.47;;;-1.43;73.09
21728;BME280;11026;50.560;17.852;2023-01-29T09:18:07;100606.34;;;-0.85;72.50
21728;BME280;11026;50.560;17.852;2023-01-29T09:20:34;100595.16;;;-0.32;69.78
21728;BME280;11026;50.560;17.852;2023-01-29T09:23:06;100598.75;;;0.31;67.97
21728;BME280;11026;50.560;17.852;2023-01-29T09:25:34;100582.53;;;0.50;65.98
21728;BME280;11026;50.560;17.852;2023-01-29T09:28:04;100588.34;;;-0.26;65.87
21728;BME280;11026;50.560;17.852;2023-01-29T09:30:32;100579.94;;;-0.11;65.84
21728;BME280;11026;50.560;17.852;2023-01-29T09:33:00;100575.28;;;-0.29;67.42
21728;BME280;11026;50.560;17.852;2023-01-29T09:35:28;100579.44;;;-0.88;68.39
21728;BME280;11026;50.560;17.852;2023-01-29T09:37:55;100566.72;;;-0.73;69.50
21728;BME280;11026;50.560;17.852;2023-01-29T09:40:29;100562.16;;;-0.86;68.98
21728;BME280;11026;50.560;17.852;2023-01-29T09:43:02;100561.97;;;-0.95;69.19
21728;BME280;11026;50.560;17.852;2023-01-29T09:45:34;100549.25;;;-0.80;69.68
21728;BME280;11026;50.560;17.852;2023-01-29T09:48:03;100539.28;;;-0.57;69.27
21728;BME280;11026;50.560;17.852;2023-01-29T09:50:38;100536.16;;;0.21;67.28
21728;BME280;11026;50.560;17.852;2023-01-29T09:55:49;100519.91;;;1.14;63.55
21728;BME280;11026;50.560;17.852;2023-01-29T09:58:36;100521.06;;;1.45;62.73
21728;BME280;11026;50.560;17.852;2023-01-29T10:07:09;100496.41;;;2.28;58.86
21728;BME280;11026;50.560;17.852;2023-01-29T10:10:17;100487.84;;;2.54;59.96
21728;BME280;11026;50.560;17.852;2023-01-29T10:13:38;100493.97;;;2.66;58.56
21728;BME280;11026;50.560;17.852;2023-01-29T10:16:20;100488.75;;;2.66;59.85
21728;BME280;11026;50.560;17.852;2023-01-29T10:19:02;100483.88;;;1.67;62.06
21728;BME280;11026;50.560;17.852;2023-01-29T10:24:37;100487.88;;;2.66;60.29
21728;BME280;11026;50.560;17.852;2023-01-29T10:27:13;100488.75;;;2.66;59.80
21728;BME280;11026;50.560;17.852;2023-01-29T10:29:43;100485.28;;;2.74;58.87
21728;BME280;11026;50.560;17.852;2023-01-29T10:32:15;100482.59;;;2.46;58.61
21728;BME280;11026;50.560;17.852;2023-01-29T10:35:23;100471.34;;;2.76;59.07
21728;BME280;11026;50.560;17.852;2023-01-29T10:37:53;100464.31;;;2.55;58.87
21728;BME280;11026;50.560;17.852;2023-01-29T10:40:24;100464.34;;;2.58;59.63
21728;BME280;11026;50.560;17.852;2023-01-29T10:43:16;100464.13;;;2.12;60.34
21728;BME280;11026;50.560;17.852;2023-01-29T10:46:09;100461.50;;;2.08;59.58
21728;BME280;11026;50.560;17.852;2023-01-29T10:48:48;100449.66;;;1.28;59.96
21728;BME280;11026;50.560;17.852;2023-01-29T10:51:40;100452.47;;;1.52;61.63
21728;BME280;11026;50.560;17.852;2023-01-29T11:00:47;100448.13;;;1.51;60.16
21728;BME280;11026;50.560;17.852;2023-01-29T11:02:56;100441.84;;;1.29;60.72
21728;BME280;11026;50.560;17.852;2023-01-29T11:11:53;100425.75;;;1.93;59.36
21728;BME280;11026;50.560;17.852;2023-01-29T11:14:43;100424.88;;;1.89;59.31
21728;BME280;11026;50.560;17.852;2023-01-29T11:17:16;100419.81;;;2.20;59.21
21728;BME280;11026;50.560;17.852;2023-01-29T11:19:46;100431.06;;;2.08;58.32
21728;BME280;11026;50.560;17.852;2023-01-29T11:22:16;100424.78;;;1.74;58.91
21728;BME280;11026;50.560;17.852;2023-01-29T11:25:07;100426.75;;;2.19;58.92
21728;BME280;11026;50.560;17.852;2023-01-29T11:27:43;100426.72;;;2.10;58.24
21728;BME280;11026;50.560;17.852;2023-01-29T11:30:22;100424.16;;;2.19;59.51
21728;BME280;11026;50.560;17.852;2023-01-29T11:33:17;100415.50;;;2.27;58.88
21728;BME280;11026;50.560;17.852;2023-01-29T11:35:45;100412.91;;;2.34;59.30
21728;BME280;11026;50.560;17.852;2023-01-29T11:38:25;100407.75;;;2.63;58.56
21728;BME280;11026;50.560;17.852;2023-01-29T11:41:04;100409.38;;;2.29;58.12
21728;BME280;11026;50.560;17.852;2023-01-29T11:43:33;100405.66;;;1.78;59.26
21728;BME280;11026;50.560;17.852;2023-01-29T11:46:05;100410.06;;;1.90;60.91
21728;BME280;11026;50.560;17.852;2023-01-29T11:48:40;100397.63;;;1.40;61.44
21728;BME280;11026;50.560;17.852;2023-01-29T11:51:11;100389.78;;;1.41;61.14
21728;BME280;11026;50.560;17.852;2023-01-29T11:53:52;100394.00;;;1.22;61.80
21728;BME280;11026;50.560;17.852;2023-01-29T11:56:37;100375.63;;;1.06;62.44
21728;BME280;11026;50.560;17.852;2023-01-29T11:59:27;100378.13;;;0.95;64.44
21728;BME280;11026;50.560;17.852;2023-01-29T12:02:28;100369.41;;;0.90;62.28
21728;BME280;11026;50.560;17.852;2023-01-29T12:05:02;100369.59;;;1.10;63.53
21728;BME280;11026;50.560;17.852;2023-01-29T12:07:33;100353.88;;;1.02;63.54
21728;BME280;11026;50.560;17.852;2023-01-29T12:10:01;100355.53;;;0.88;64.27
21728;BME280;11026;50.560;17.852;2023-01-29T12:12:34;100349.31;;;0.75;65.14
21728;BME280;11026;50.560;17.852;2023-01-29T12:15:15;100345.88;;;0.76;65.09
21728;BME280;11026;50.560;17.852;2023-01-29T12:18:43;100339.69;;;0.66;66.48
21728;BME280;11026;50.560;17.852;2023-01-29T12:20:51;100346.69;;;0.67;66.46
21728;BME280;11026;50.560;17.852;2023-01-29T12:23:35;100345.78;;;0.64;66.74
21728;BME280;11026;50.560;17.852;2023-01-29T12:26:14;100341.53;;;0.78;68.33
21728;BME280;11026;50.560;17.852;2023-01-29T12:32:05;100335.09;;;0.38;68.26
21728;BME280;11026;50.560;17.852;2023-01-29T12:37:57;100324.94;;;0.64;68.92
21728;BME280;11026;50.560;17.852;2023-01-29T12:40:50;100314.44;;;0.56;69.34
21728;BME280;11026;50.560;17.852;2023-01-29T12:46:01;100303.25;;;0.65;69.03
21728;BME280;11026;50.560;17.852;2023-01-29T12:48:37;100297.28;;;0.80;69.87
21728;BME280;11026;50.560;17.852;2023-01-29T12:51:12;100296.22;;;0.56;70.17
21728;BME280;11026;50.560;17.852;2023-01-29T12:54:06;100289.94;;;0.33;69.87
21728;BME280;11026;50.560;17.852;2023-01-29T12:56:38;100283.84;;;0.31;70.23
21728;BME280;11026;50.560;17.852;2023-01-29T12:59:30;100289.00;;;0.24;70.85
21728;BME280;11026;50.560;17.852;2023-01-29T13:02:35;100282.91;;;0.24;71.32
21728;BME280;11026;50.560;17.852;2023-01-29T13:08:04;100294.91;;;0.08;72.17
21728;BME280;11026;50.560;17.852;2023-01-29T13:10:40;100287.06;;;0.05;72.69
21728;BME280;11026;50.560;17.852;2023-01-29T13:13:30;100287.06;;;0.07;73.43
21728;BME280;11026;50.560;17.852;2023-01-29T13:16:00;100273.16;;;0.03;73.24
21728;BME280;11026;50.560;17.852;2023-01-29T13:18:40;100279.03;;;-0.13;73.96
21728;BME280;11026;50.560;17.852;2023-01-29T13:21:17;100283.41;;;-0.09;75.37
21728;BME280;11026;50.560;17.852;2023-01-29T13:24:13;100266.28;;;0.11;74.94
21728;BME280;11026;50.560;17.852;2023-01-29T13:26:46;100263.72;;;0.14;75.20
21728;BME280;11026;50.560;17.852;2023-01-29T13:29:38;100264.56;;;0.10;75.56
21728;BME280;11026;50.560;17.852;2023-01-29T13:32:09;100259.53;;;0.32;75.72
21728;BME280;11026;50.560;17.852;2023-01-29T13:34:43;100263.19;;;0.51;75.05
21728;BME280;11026;50.560;17.852;2023-01-29T13:37:37;100264.00;;;0.46;74.69
21728;BME280;11026;50.560;17.852;2023-01-29T13:40:07;100251.72;;;0.29;73.75
21728;BME280;11026;50.560;17.852;2023-01-29T13:42:49;100256.13;;;0.36;74.44
21728;BME280;11026;50.560;17.852;2023-01-29T13:45:41;100249.88;;;0.17;74.62
21728;BME280;11026;50.560;17.852;2023-01-29T13:48:27;100251.69;;;0.26;76.12
21728;BME280;11026;50.560;17.852;2023-01-29T13:51:02;100244.75;;;0.28;76.43
21728;BME280;11026;50.560;17.852;2023-01-29T13:53:39;100237.84;;;0.30;75.61
21728;BME280;11026;50.560;17.852;2023-01-29T13:58:56;100226.69;;;0.40;75.87
21728;BME280;11026;50.560;17.852;2023-01-29T14:06:53;100246.72;;;0.55;75.36
21728;BME280;11026;50.560;17.852;2023-01-29T14:10:00;100249.25;;;0.44;75.97
21728;BME280;11026;50.560;17.852;2023-01-29T14:15:44;100242.16;;;0.24;76.71
21728;BME280;11026;50.560;17.852;2023-01-29T14:20:33;100231.72;;;0.23;77.00
21728;BME280;11026;50.560;17.852;2023-01-29T14:25:51;100233.44;;;0.22;77.82
21728;BME280;11026;50.560;17.852;2023-01-29T14:28:28;100241.34;;;0.35;78.02
21728;BME280;11026;50.560;17.852;2023-01-29T14:30:56;100241.25;;;0.21;78.86
21728;BME280;11026;50.560;17.852;2023-01-29T14:33:37;100242.97;;;0.22;79.29
21728;BME280;11026;50.560;17.852;2023-01-29T14:36:11;100244.59;;;0.11;79.23
21728;BME280;11026;50.560;17.852;2023-01-29T14:38:46;100246.41;;;0.19;79.04
21728;BME280;11026;50.560;17.852;2023-01-29T14:41:24;100249.00;;;0.16;78.67
21728;BME280;11026;50.560;17.852;2023-01-29T14:46:59;100239.38;;;0.06;78.94
21728;BME280;11026;50.560;17.852;2023-01-29T14:52:24;100250.59;;;0.02;80.06
21728;BME280;11026;50.560;17.852;2023-01-29T14:54:58;100252.28;;;-0.03;79.83
21728;BME280;11026;50.560;17.852;2023-01-29T14:57:28;100248.88;;;0.01;79.97
21728;BME280;11026;50.560;17.852;2023-01-29T15:00:00;100229.81;;;0.07;80.25
21728;BME280;11026;50.560;17.852;2023-01-29T15:02:39;100234.03;;;-0.06;80.17
21728;BME280;11026;50.560;17.852;2023-01-29T15:05:12;100238.50;;;0.04;80.57
21728;BME280;11026;50.560;17.852;2023-01-29T15:07:57;100240.09;;;-0.07;80.93
21728;BME280;11026;50.560;17.852;2023-01-29T15:10:38;100235.69;;;-0.13;80.94
21728;BME280;11026;50.560;17.852;2023-01-29T15:13:31;100220.91;;;-0.18;81.41